sensor_id;sensor_type;location;lat;lon;timestamp;P1;durP1;ratioP1;P2;durP2;ratioP2
38435;SDS011;24220;48.168;14.024;2023-03-24T00:02:24;9.50;;;6.18;;
38435;SDS011;24220;48.168;14.024;2023-03-24T00:04:54;7.22;;;5.90;;
38435;SDS011;24220;48.168;14.024;2023-03-24T00:07:27;7.13;;;5.70;;
38435;SDS011;24220;48.168;14.024;2023-03-24T00:12:23;7.93;;;6.10;;
38435;SDS011;24220;48.168;14.024;2023-03-24T00:14:53;9.05;;;5.50;;
38435;SDS011;24220;48.168;14.024;2023-03-24T00:17:25;9.32;;;5.93;;
38435;SDS011;24220;48.168;14.024;2023-03-24T00:19:55;5.95;;;5.07;;
38435;SDS011;24220;48.168;14.024;2023-03-24T00:22:24;8.18;;;5.25;;
38435;SDS011;24220;48.168;14.024;2023-03-24T00:24:54;7.82;;;5.53;;
38435;SDS011;24220;48.168;14.024;2023-03-24T00:27:24;7.55;;;5.50;;
38435;SDS011;24220;48.168;14.024;2023-03-24T00:29:53;7.97;;;5.28;;
38435;SDS011;24220;48.168;14.024;2023-03-24T00:32:21;7.25;;;5.75;;
38435;SDS011;24220;48.168;14.024;2023-03-24T00:34:51;7.70;;;4.97;;
38435;SDS011;24220;48.168;14.024;2023-03-24T00:37:20;7.78;;;4.55;;
38435;SDS011;24220;48.168;14.024;2023-03-24T00:39:52;5.60;;;4.70;;
38435;SDS011;24220;48.168;14.024;2023-03-24T00:42:21;7.45;;;5.05;;
38435;SDS011;24220;48.168;14.024;2023-03-24T00:44:51;6.88;;;4.80;;
38435;SDS011;24220;48.168;14.024;2023-03-24T00:47:26;5.70;;;5.10;;
38435;SDS011;24220;48.168;14.024;2023-03-24T00:49:53;8.77;;;5.18;;
38435;SDS011;24220;48.168;14.024;2023-03-24T00:52:26;6.47;;;5.47;;
38435;SDS011;24220;48.168;14.024;2023-03-24T00:55:01;7.28;;;5.30;;
38435;SDS011;24220;48.168;14.024;2023-03-24T00:57:34;7.75;;;5.43;;
38435;SDS011;24220;48.168;14.024;2023-03-24T01:00:02;8.73;;;5.20;;
38435;SDS011;24220;48.168;14.024;2023-03-24T01:02:41;6.57;;;4.95;;
38435;SDS011;24220;48.168;14.024;2023-03-24T01:05:09;6.90;;;4.65;;
38435;SDS011;24220;48.168;14.024;2023-03-24T01:07:36;5.65;;;4.70;;
38435;SDS011;24220;48.168;14.024;2023-03-24T01:10:12;6.70;;;4.45;;
38435;SDS011;24220;48.168;14.024;2023-03-24T01:12:47;5.88;;;4.30;;
38435;SDS011;24220;48.168;14.024;2023-03-24T01:15:16;6.70;;;4.55;;
38435;SDS011;24220;48.168;14.024;2023-03-24T01:17:50;5.20;;;4.20;;
38435;SDS011;24220;48.168;14.024;2023-03-24T01:20:19;6.75;;;4.53;;
38435;SDS011;24220;48.168;14.024;2023-03-24T01:22:52;5.47;;;4.28;;
38435;SDS011;24220;48.168;14.024;2023-03-24T01:25:20;6.22;;;4.25;;
38435;SDS011;24220;48.168;14.024;2023-03-24T01:27:49;6.22;;;4.35;;
38435;SDS011;24220;48.168;14.024;2023-03-24T01:30:26;5.55;;;4.57;;
38435;SDS011;24220;48.168;14.024;2023-03-24T01:32:55;6.70;;;4.20;;
38435;SDS011;24220;48.168;14.024;2023-03-24T01:35:27;6.63;;;4.50;;
38435;SDS011;24220;48.168;14.024;2023-03-24T01:37:55;6.18;;;4.57;;
38435;SDS011;24220;48.168;14.024;2023-03-24T01:40:26;7.97;;;4.55;;
38435;SDS011;24220;48.168;14.024;2023-03-24T01:42:56;5.85;;;3.88;;
38435;SDS011;24220;48.168;14.024;2023-03-24T01:51:03;5.75;;;4.22;;
38435;SDS011;24220;48.168;14.024;2023-03-24T01:56:25;5.00;;;4.32;;
38435;SDS011;24220;48.168;14.024;2023-03-24T01:58:58;4.70;;;4.15;;
38435;SDS011;24220;48.168;14.024;2023-03-24T02:01:31;4.97;;;4.15;;
38435;SDS011;24220;48.168;14.024;2023-03-24T02:03:59;5.47;;;4.30;;
38435;SDS011;24220;48.168;14.024;2023-03-24T02:06:34;5.15;;;4.10;;
38435;SDS011;24220;48.168;14.024;2023-03-24T02:09:07;5.22;;;4.30;;
38435;SDS011;24220;48.168;14.024;2023-03-24T02:11:39;5.78;;;4.28;;
38435;SDS011;24220;48.168;14.024;2023-03-24T02:14:07;6.07;;;4.82;;
38435;SDS011;24220;48.168;14.024;2023-03-24T02:33:27;4.97;;;4.22;;
38435;SDS011;24220;48.168;14.024;2023-03-24T02:44:41;5.20;;;4.13;;
38435;SDS011;24220;48.168;14.024;2023-03-24T02:53:23;5.00;;;4.28;;
38435;SDS011;24220;48.168;14.024;2023-03-24T02:58:42;6.88;;;4.03;;
38435;SDS011;24220;48.168;14.024;2023-03-24T03:01:19;5.00;;;4.13;;
38435;SDS011;24220;48.168;14.024;2023-03-24T03:04:16;5.00;;;4.10;;
38435;SDS011;24220;48.168;14.024;2023-03-24T03:06:56;4.50;;;3.67;;
38435;SDS011;24220;48.168;14.024;2023-03-24T03:09:25;4.85;;;4.28;;
38435;SDS011;24220;48.168;14.024;2023-03-24T03:11:58;6.40;;;4.50;;
38435;SDS011;24220;48.168;14.024;2023-03-24T03:14:50;4.80;;;4.13;;
38435;SDS011;24220;48.168;14.024;2023-03-24T03:17:23;4.82;;;4.10;;
38435;SDS011;24220;48.168;14.024;2023-03-24T03:20:01;4.53;;;4.07;;
38435;SDS011;24220;48.168;14.024;2023-03-24T03:22:38;5.22;;;4.00;;
38435;SDS011;24220;48.168;14.024;2023-03-24T03:25:20;5.18;;;4.25;;
38435;SDS011;24220;48.168;14.024;2023-03-24T03:27:55;7.38;;;3.90;;
38435;SDS011;24220;48.168;14.024;2023-03-24T03:30:39;6.30;;;4.53;;
38435;SDS011;24220;48.168;14.024;2023-03-24T03:33:22;4.38;;;3.67;;
38435;SDS011;24220;48.168;14.024;2023-03-24T03:41:37;5.15;;;4.22;;
38435;SDS011;24220;48.168;14.024;2023-03-24T03:44:06;6.45;;;4.57;;
38435;SDS011;24220;48.168;14.024;2023-03-24T03:46:36;4.63;;;3.70;;
38435;SDS011;24220;48.168;14.024;2023-03-24T03:49:05;5.18;;;4.30;;
38435;SDS011;24220;48.168;14.024;2023-03-24T03:51:33;6.45;;;4.70;;
38435;SDS011;24220;48.168;14.024;2023-03-24T03:54:04;5.68;;;4.60;;
38435;SDS011;24220;48.168;14.024;2023-03-24T03:56:40;6.32;;;4.50;;
38435;SDS011;24220;48.168;14.024;2023-03-24T03:59:30;5.00;;;4.30;;
38435;SDS011;24220;48.168;14.024;2023-03-24T04:02:11;5.55;;;4.25;;
38435;SDS011;24220;48.168;14.024;2023-03-24T04:18:20;6.50;;;4.95;;
38435;SDS011;24220;48.168;14.024;2023-03-24T04:29:39;6.85;;;4.82;;
38435;SDS011;24220;48.168;14.024;2023-03-24T04:32:25;6.85;;;4.90;;
38435;SDS011;24220;48.168;14.024;2023-03-24T04:35:23;5.43;;;4.78;;
38435;SDS011;24220;48.168;14.024;2023-03-24T04:38:00;5.90;;;4.78;;
38435;SDS011;24220;48.168;14.024;2023-03-24T04:40:34;5.85;;;4.68;;
38435;SDS011;24220;48.168;14.024;2023-03-24T04:43:11;5.50;;;4.60;;
38435;SDS011;24220;48.168;14.024;2023-03-24T04:45:43;6.85;;;4.85;;
38435;SDS011;24220;48.168;14.024;2023-03-24T04:48:16;6.05;;;5.10;;
38435;SDS011;24220;48.168;14.024;2023-03-24T04:51:02;7.15;;;5.47;;
38435;SDS011;24220;48.168;14.024;2023-03-24T04:53:41;7.10;;;5.10;;
38435;SDS011;24220;48.168;14.024;2023-03-24T04:59:14;6.50;;;5.10;;
38435;SDS011;24220;48.168;14.024;2023-03-24T05:01:43;7.95;;;5.28;;
38435;SDS011;24220;48.168;14.024;2023-03-24T05:04:21;6.50;;;5.10;;
38435;SDS011;24220;48.168;14.024;2023-03-24T05:06:50;6.70;;;5.45;;
38435;SDS011;24220;48.168;14.024;2023-03-24T05:09:19;7.07;;;5.50;;
38435;SDS011;24220;48.168;14.024;2023-03-24T05:11:48;6.55;;;5.45;;
38435;SDS011;24220;48.168;14.024;2023-03-24T05:14:18;7.07;;;6.10;;
38435;SDS011;24220;48.168;14.024;2023-03-24T05:16:48;8.65;;;6.07;;
38435;SDS011;24220;48.168;14.024;2023-03-24T05:19:18;7.32;;;6.18;;
38435;SDS011;24220;48.168;14.024;2023-03-24T05:21:48;7.97;;;6.45;;
38435;SDS011;24220;48.168;14.024;2023-03-24T05:24:18;7.25;;;6.35;;
38435;SDS011;24220;48.168;14.024;2023-03-24T05:26:48;7.18;;;5.63;;
38435;SDS011;24220;48.168;14.024;2023-03-24T05:29:18;7.82;;;5.47;;
38435;SDS011;24220;48.168;14.024;2023-03-24T05:31:45;8.30;;;5.35;;
38435;SDS011;24220;48.168;14.024;2023-03-24T05:34:15;7.28;;;5.45;;
38435;SDS011;24220;48.168;14.024;2023-03-24T05:36:43;9.77;;;5.45;;
38435;SDS011;24220;48.168;14.024;2023-03-24T05:39:13;9.25;;;5.10;;
38435;SDS011;24220;48.168;14.024;2023-03-24T05:41:41;8.05;;;5.43;;
38435;SDS011;24220;48.168;14.024;2023-03-24T05:44:12;9.73;;;6.07;;
38435;SDS011;24220;48.168;14.024;2023-03-24T05:46:39;6.28;;;5.07;;
38435;SDS011;24220;48.168;14.024;2023-03-24T05:49:08;7.53;;;5.20;;
38435;SDS011;24220;48.168;14.024;2023-03-24T05:51:36;7.20;;;5.30;;
38435;SDS011;24220;48.168;14.024;2023-03-24T05:54:10;6.00;;;5.05;;
38435;SDS011;24220;48.168;14.024;2023-03-24T05:56:37;7.80;;;5.25;;
38435;SDS011;24220;48.168;14.024;2023-03-24T05:59:05;9.57;;;6.00;;
38435;SDS011;24220;48.168;14.024;2023-03-24T06:01:37;6.45;;;5.32;;
38435;SDS011;24220;48.168;14.024;2023-03-24T06:04:08;6.30;;;5.60;;
38435;SDS011;24220;48.168;14.024;2023-03-24T06:06:35;5.75;;;5.07;;
38435;SDS011;24220;48.168;14.024;2023-03-24T06:09:06;7.43;;;5.30;;
38435;SDS011;24220;48.168;14.024;2023-03-24T06:11:38;6.85;;;5.10;;
38435;SDS011;24220;48.168;14.024;2023-03-24T06:14:36;9.18;;;5.40;;
38435;SDS011;24220;48.168;14.024;2023-03-24T06:17:08;6.55;;;5.28;;
38435;SDS011;24220;48.168;14.024;2023-03-24T06:19:41;6.40;;;5.43;;
38435;SDS011;24220;48.168;14.024;2023-03-24T06:22:16;10.02;;;6.10;;
38435;SDS011;24220;48.168;14.024;2023-03-24T06:24:46;8.20;;;5.78;;
38435;SDS011;24220;48.168;14.024;2023-03-24T06:27:15;6.40;;;5.63;;
38435;SDS011;24220;48.168;14.024;2023-03-24T06:29:51;8.35;;;6.18;;
38435;SDS011;24220;48.168;14.024;2023-03-24T06:32:21;9.30;;;6.00;;
38435;SDS011;24220;48.168;14.024;2023-03-24T06:34:49;10.15;;;6.07;;
38435;SDS011;24220;48.168;14.024;2023-03-24T06:37:17;11.68;;;6.32;;
38435;SDS011;24220;48.168;14.024;2023-03-24T06:39:49;6.70;;;5.80;;
38435;SDS011;24220;48.168;14.024;2023-03-24T06:42:18;9.82;;;5.80;;
38435;SDS011;24220;48.168;14.024;2023-03-24T06:44:46;10.85;;;6.40;;
38435;SDS011;24220;48.168;14.024;2023-03-24T06:47:13;8.32;;;5.97;;
38435;SDS011;24220;48.168;14.024;2023-03-24T06:49:41;8.38;;;5.90;;
38435;SDS011;24220;48.168;14.024;2023-03-24T06:52:10;10.80;;;6.57;;
38435;SDS011;24220;48.168;14.024;2023-03-24T06:54:40;7.25;;;5.70;;
38435;SDS011;24220;48.168;14.024;2023-03-24T06:57:07;8.48;;;6.22;;
38435;SDS011;24220;48.168;14.024;2023-03-24T06:59:38;9.65;;;5.95;;
38435;SDS011;24220;48.168;14.024;2023-03-24T07:02:05;10.23;;;6.32;;
38435;SDS011;24220;48.168;14.024;2023-03-24T07:04:34;11.18;;;6.82;;
38435;SDS011;24220;48.168;14.024;2023-03-24T07:07:02;9.77;;;6.68;;
38435;SDS011;24220;48.168;14.024;2023-03-24T07:09:52;9.68;;;7.72;;
38435;SDS011;24220;48.168;14.024;2023-03-24T07:12:19;9.57;;;8.40;;
38435;SDS011;24220;48.168;14.024;2023-03-24T07:14:46;11.25;;;8.40;;
38435;SDS011;24220;48.168;14.024;2023-03-24T07:17:13;10.00;;;7.43;;
38435;SDS011;24220;48.168;14.024;2023-03-24T07:19:43;10.98;;;8.07;;
38435;SDS011;24220;48.168;14.024;2023-03-24T07:22:11;10.20;;;8.07;;
38435;SDS011;24220;48.168;14.024;2023-03-24T07:24:38;11.77;;;7.95;;
38435;SDS011;24220;48.168;14.024;2023-03-24T07:27:06;10.63;;;8.02;;
38435;SDS011;24220;48.168;14.024;2023-03-24T07:29:33;11.32;;;8.10;;
38435;SDS011;24220;48.168;14.024;2023-03-24T07:32:02;9.65;;;7.50;;
38435;SDS011;24220;48.168;14.024;2023-03-24T07:34:29;37.22;;;33.13;;
38435;SDS011;24220;48.168;14.024;2023-03-24T07:36:57;17.38;;;13.50;;
38435;SDS011;24220;48.168;14.024;2023-03-24T07:39:27;12.52;;;8.93;;
38435;SDS011;24220;48.168;14.024;2023-03-24T07:41:55;11.82;;;8.55;;
38435;SDS011;24220;48.168;14.024;2023-03-24T07:44:24;9.65;;;7.97;;
38435;SDS011;24220;48.168;14.024;2023-03-24T07:46:54;10.80;;;8.50;;
38435;SDS011;24220;48.168;14.024;2023-03-24T07:49:23;15.68;;;7.97;;
38435;SDS011;24220;48.168;14.024;2023-03-24T07:51:51;12.88;;;8.02;;
38435;SDS011;24220;48.168;14.024;2023-03-24T07:54:19;11.05;;;7.97;;
38435;SDS011;24220;48.168;14.024;2023-03-24T07:56:47;14.45;;;7.50;;
38435;SDS011;24220;48.168;14.024;2023-03-24T07:59:14;11.55;;;7.63;;
38435;SDS011;24220;48.168;14.024;2023-03-24T08:01:43;8.32;;;6.68;;
38435;SDS011;24220;48.168;14.024;2023-03-24T08:04:13;9.35;;;6.40;;
38435;SDS011;24220;48.168;14.024;2023-03-24T08:06:43;11.75;;;7.28;;
38435;SDS011;24220;48.168;14.024;2023-03-24T08:09:11;8.77;;;6.70;;
38435;SDS011;24220;48.168;14.024;2023-03-24T08:11:42;9.15;;;6.95;;
38435;SDS011;24220;48.168;14.024;2023-03-24T08:14:12;7.30;;;5.97;;
38435;SDS011;24220;48.168;14.024;2023-03-24T08:16:41;7.45;;;6.07;;
38435;SDS011;24220;48.168;14.024;2023-03-24T08:19:11;7.45;;;6.15;;
38435;SDS011;24220;48.168;14.024;2023-03-24T08:21:39;7.50;;;6.47;;
38435;SDS011;24220;48.168;14.024;2023-03-24T08:24:06;8.57;;;6.00;;
38435;SDS011;24220;48.168;14.024;2023-03-24T08:26:36;8.10;;;6.68;;
38435;SDS011;24220;48.168;14.024;2023-03-24T08:29:03;7.55;;;5.70;;
38435;SDS011;24220;48.168;14.024;2023-03-24T08:31:34;7.00;;;6.18;;
38435;SDS011;24220;48.168;14.024;2023-03-24T08:34:03;9.13;;;6.68;;
38435;SDS011;24220;48.168;14.024;2023-03-24T08:46:23;9.18;;;7.70;;
38435;SDS011;24220;48.168;14.024;2023-03-24T08:52:35;8.63;;;7.10;;
38435;SDS011;24220;48.168;14.024;2023-03-24T08:55:02;10.30;;;7.60;;
38435;SDS011;24220;48.168;14.024;2023-03-24T08:57:30;11.38;;;7.38;;
38435;SDS011;24220;48.168;14.024;2023-03-24T08:59:57;11.05;;;8.30;;
38435;SDS011;24220;48.168;14.024;2023-03-24T09:02:25;9.40;;;7.95;;
38435;SDS011;24220;48.168;14.024;2023-03-24T09:04:53;8.80;;;7.78;;
38435;SDS011;24220;48.168;14.024;2023-03-24T09:07:22;11.73;;;8.55;;
38435;SDS011;24220;48.168;14.024;2023-03-24T09:09:49;12.48;;;8.27;;
38435;SDS011;24220;48.168;14.024;2023-03-24T09:12:19;9.07;;;7.60;;
38435;SDS011;24220;48.168;14.024;2023-03-24T09:14:47;9.23;;;7.35;;
38435;SDS011;24220;48.168;14.024;2023-03-24T09:17:18;8.68;;;7.28;;
38435;SDS011;24220;48.168;14.024;2023-03-24T09:19:47;13.65;;;7.57;;
38435;SDS011;24220;48.168;14.024;2023-03-24T09:22:15;13.60;;;8.05;;
38435;SDS011;24220;48.168;14.024;2023-03-24T09:24:42;10.77;;;7.40;;
38435;SDS011;24220;48.168;14.024;2023-03-24T09:27:12;13.30;;;7.32;;
38435;SDS011;24220;48.168;14.024;2023-03-24T09:29:39;9.30;;;7.05;;
38435;SDS011;24220;48.168;14.024;2023-03-24T09:32:07;8.88;;;6.68;;
38435;SDS011;24220;48.168;14.024;2023-03-24T09:34:37;10.43;;;7.32;;
38435;SDS011;24220;48.168;14.024;2023-03-24T09:37:04;7.68;;;6.60;;
38435;SDS011;24220;48.168;14.024;2023-03-24T09:39:35;8.65;;;5.93;;
38435;SDS011;24220;48.168;14.024;2023-03-24T09:42:09;9.18;;;6.38;;
38435;SDS011;24220;48.168;14.024;2023-03-24T09:44:53;7.43;;;6.03;;
38435;SDS011;24220;48.168;14.024;2023-03-24T09:47:37;7.82;;;6.38;;
38435;SDS011;24220;48.168;14.024;2023-03-24T09:50:45;9.93;;;6.32;;
38435;SDS011;24220;48.168;14.024;2023-03-24T09:55:49;8.50;;;6.57;;
38435;SDS011;24220;48.168;14.024;2023-03-24T09:58:21;7.70;;;6.70;;
38435;SDS011;24220;48.168;14.024;2023-03-24T10:00:55;8.73;;;6.63;;
38435;SDS011;24220;48.168;14.024;2023-03-24T10:03:23;8.85;;;6.72;;
38435;SDS011;24220;48.168;14.024;2023-03-24T10:08:46;9.80;;;7.25;;
38435;SDS011;24220;48.168;14.024;2023-03-24T10:25:17;8.35;;;6.90;;
38435;SDS011;24220;48.168;14.024;2023-03-24T10:30:25;8.80;;;6.45;;
38435;SDS011;24220;48.168;14.024;2023-03-24T10:32:57;7.25;;;6.13;;
38435;SDS011;24220;48.168;14.024;2023-03-24T10:35:28;8.02;;;6.35;;
38435;SDS011;24220;48.168;14.024;2023-03-24T10:38:00;8.25;;;7.20;;
38435;SDS011;24220;48.168;14.024;2023-03-24T10:40:33;12.98;;;7.18;;
38435;SDS011;24220;48.168;14.024;2023-03-24T10:43:01;9.35;;;7.10;;
38435;SDS011;24220;48.168;14.024;2023-03-24T10:45:35;9.98;;;6.43;;
38435;SDS011;24220;48.168;14.024;2023-03-24T10:48:05;8.20;;;6.63;;
38435;SDS011;24220;48.168;14.024;2023-03-24T10:50:40;10.68;;;6.43;;
38435;SDS011;24220;48.168;14.024;2023-03-24T10:53:17;8.30;;;6.47;;
38435;SDS011;24220;48.168;14.024;2023-03-24T10:55:46;8.40;;;5.40;;
38435;SDS011;24220;48.168;14.024;2023-03-24T11:01:23;9.73;;;5.00;;
38435;SDS011;24220;48.168;14.024;2023-03-24T11:03:59;7.63;;;4.85;;
38435;SDS011;24220;48.168;14.024;2023-03-24T11:06:30;7.68;;;5.32;;
38435;SDS011;24220;48.168;14.024;2023-03-24T11:09:06;7.68;;;5.38;;
38435;SDS011;24220;48.168;14.024;2023-03-24T11:11:44;5.65;;;4.65;;
38435;SDS011;24220;48.168;14.024;2023-03-24T11:17:12;3.97;;;3.17;;
38435;SDS011;24220;48.168;14.024;2023-03-24T11:19:53;3.28;;;2.97;;
38435;SDS011;24220;48.168;14.024;2023-03-24T11:22:23;5.20;;;3.10;;
38435;SDS011;24220;48.168;14.024;2023-03-24T11:24:54;7.22;;;3.30;;
38435;SDS011;24220;48.168;14.024;2023-03-24T11:27:22;4.30;;;3.80;;
38435;SDS011;24220;48.168;14.024;2023-03-24T11:29:52;3.97;;;3.50;;
38435;SDS011;24220;48.168;14.024;2023-03-24T11:32:24;3.80;;;3.40;;
38435;SDS011;24220;48.168;14.024;2023-03-24T11:34:58;4.75;;;3.15;;
38435;SDS011;24220;48.168;14.024;2023-03-24T11:37:37;3.30;;;3.00;;
38435;SDS011;24220;48.168;14.024;2023-03-24T11:42:41;3.45;;;2.88;;
38435;SDS011;24220;48.168;14.024;2023-03-24T11:51:07;4.30;;;2.50;;
38435;SDS011;24220;48.168;14.024;2023-03-24T11:53:43;6.95;;;4.10;;
38435;SDS011;24220;48.168;14.024;2023-03-24T11:56:16;5.07;;;3.30;;
38435;SDS011;24220;48.168;14.024;2023-03-24T12:07:50;4.80;;;2.92;;
38435;SDS011;24220;48.168;14.024;2023-03-24T12:13:15;5.15;;;3.67;;
38435;SDS011;24220;48.168;14.024;2023-03-24T12:27:36;4.03;;;2.20;;
38435;SDS011;24220;48.168;14.024;2023-03-24T12:30:43;2.75;;;2.35;;
38435;SDS011;24220;48.168;14.024;2023-03-24T12:41:23;1.85;;;1.55;;
38435;SDS011;24220;48.168;14.024;2023-03-24T12:49:35;4.10;;;2.03;;
38435;SDS011;24220;48.168;14.024;2023-03-24T12:57:23;2.53;;;1.90;;
38435;SDS011;24220;48.168;14.024;2023-03-24T13:00:00;2.17;;;1.98;;
38435;SDS011;24220;48.168;14.024;2023-03-24T13:05:48;2.90;;;1.88;;
38435;SDS011;24220;48.168;14.024;2023-03-24T13:08:25;2.65;;;2.20;;
38435;SDS011;24220;48.168;14.024;2023-03-24T13:10:56;2.45;;;2.17;;
38435;SDS011;24220;48.168;14.024;2023-03-24T13:13:37;2.33;;;2.13;;
38435;SDS011;24220;48.168;14.024;2023-03-24T13:16:12;2.95;;;2.35;;
38435;SDS011;24220;48.168;14.024;2023-03-24T13:18:45;2.45;;;2.00;;
38435;SDS011;24220;48.168;14.024;2023-03-24T13:21:17;3.22;;;2.45;;
38435;SDS011;24220;48.168;14.024;2023-03-24T13:23:56;2.78;;;2.00;;
38435;SDS011;24220;48.168;14.024;2023-03-24T13:26:44;2.45;;;2.25;;
38435;SDS011;24220;48.168;14.024;2023-03-24T13:32:19;2.80;;;2.47;;
38435;SDS011;24220;48.168;14.024;2023-03-24T13:35:11;3.17;;;2.83;;
38435;SDS011;24220;48.168;14.024;2023-03-24T13:37:52;3.30;;;2.80;;
38435;SDS011;24220;48.168;14.024;2023-03-24T13:40:27;3.33;;;2.92;;
38435;SDS011;24220;48.168;14.024;2023-03-24T13:43:11;3.30;;;2.75;;
38435;SDS011;24220;48.168;14.024;2023-03-24T13:45:44;4.60;;;2.85;;
38435;SDS011;24220;48.168;14.024;2023-03-24T13:54:19;4.50;;;4.10;;
38435;SDS011;24220;48.168;14.024;2023-03-24T14:15:28;4.20;;;2.97;;
38435;SDS011;24220;48.168;14.024;2023-03-24T14:23:44;2.58;;;2.38;;
38435;SDS011;24220;48.168;14.024;2023-03-24T14:28:49;4.07;;;2.80;;
38435;SDS011;24220;48.168;14.024;2023-03-24T14:31:22;3.20;;;2.83;;
38435;SDS011;24220;48.168;14.024;2023-03-24T14:34:00;3.50;;;3.03;;
38435;SDS011;24220;48.168;14.024;2023-03-24T14:36:36;3.70;;;2.90;;
38435;SDS011;24220;48.168;14.024;2023-03-24T14:47:58;3.63;;;3.25;;
38435;SDS011;24220;48.168;14.024;2023-03-24T14:50:27;4.00;;;3.35;;
38435;SDS011;24220;48.168;14.024;2023-03-24T14:53:01;6.75;;;3.97;;
38435;SDS011;24220;48.168;14.024;2023-03-24T14:55:29;4.90;;;3.55;;
38435;SDS011;24220;48.168;14.024;2023-03-24T14:58:00;4.90;;;3.50;;
38435;SDS011;24220;48.168;14.024;2023-03-24T15:00:41;5.20;;;3.42;;
38435;SDS011;24220;48.168;14.024;2023-03-24T15:06:19;6.28;;;4.22;;
38435;SDS011;24220;48.168;14.024;2023-03-24T15:08:51;4.55;;;3.97;;
38435;SDS011;24220;48.168;14.024;2023-03-24T15:11:21;3.92;;;3.53;;
38435;SDS011;24220;48.168;14.024;2023-03-24T15:13:54;5.28;;;3.78;;
38435;SDS011;24220;48.168;14.024;2023-03-24T15:16:29;6.65;;;4.20;;
38435;SDS011;24220;48.168;14.024;2023-03-24T15:18:59;4.40;;;4.00;;
38435;SDS011;24220;48.168;14.024;2023-03-24T15:26:51;4.55;;;4.00;;
38435;SDS011;24220;48.168;14.024;2023-03-24T15:29:40;4.93;;;3.75;;
38435;SDS011;24220;48.168;14.024;2023-03-24T15:32:17;4.47;;;3.72;;
38435;SDS011;24220;48.168;14.024;2023-03-24T15:34:48;5.03;;;3.90;;
38435;SDS011;24220;48.168;14.024;2023-03-24T15:37:39;4.65;;;4.10;;
38435;SDS011;24220;48.168;14.024;2023-03-24T15:42:58;4.72;;;4.22;;
38435;SDS011;24220;48.168;14.024;2023-03-24T15:45:35;4.35;;;3.95;;
38435;SDS011;24220;48.168;14.024;2023-03-24T15:48:13;4.95;;;4.10;;
38435;SDS011;24220;48.168;14.024;2023-03-24T15:53:35;6.00;;;4.75;;
38435;SDS011;24220;48.168;14.024;2023-03-24T16:01:17;7.95;;;6.13;;
38435;SDS011;24220;48.168;14.024;2023-03-24T16:04:20;4.88;;;4.43;;
38435;SDS011;24220;48.168;14.024;2023-03-24T16:06:50;4.72;;;4.15;;
38435;SDS011;24220;48.168;14.024;2023-03-24T16:09:23;5.18;;;4.30;;
38435;SDS011;24220;48.168;14.024;2023-03-24T16:11:53;5.43;;;4.30;;
38435;SDS011;24220;48.168;14.024;2023-03-24T16:14:24;7.68;;;4.97;;
38435;SDS011;24220;48.168;14.024;2023-03-24T16:16:54;5.15;;;4.53;;
38435;SDS011;24220;48.168;14.024;2023-03-24T16:19:25;18.27;;;12.07;;
38435;SDS011;24220;48.168;14.024;2023-03-24T16:21:53;34.15;;;22.45;;
38435;SDS011;24220;48.168;14.024;2023-03-24T16:24:21;36.30;;;23.40;;
38435;SDS011;24220;48.168;14.024;2023-03-24T16:26:48;29.65;;;19.77;;
38435;SDS011;24220;48.168;14.024;2023-03-24T16:29:20;24.63;;;17.75;;
38435;SDS011;24220;48.168;14.024;2023-03-24T16:31:50;15.85;;;11.90;;
38435;SDS011;24220;48.168;14.024;2023-03-24T16:34:19;8.38;;;7.03;;
38435;SDS011;24220;48.168;14.024;2023-03-24T16:36:48;7.13;;;6.43;;
38435;SDS011;24220;48.168;14.024;2023-03-24T16:39:18;10.20;;;8.02;;
38435;SDS011;24220;48.168;14.024;2023-03-24T16:41:47;7.88;;;7.05;;
38435;SDS011;24220;48.168;14.024;2023-03-24T16:44:16;8.55;;;7.10;;
38435;SDS011;24220;48.168;14.024;2023-03-24T16:46:45;7.93;;;7.13;;
38435;SDS011;24220;48.168;14.024;2023-03-24T16:49:15;9.07;;;6.68;;
38435;SDS011;24220;48.168;14.024;2023-03-24T16:51:44;7.75;;;6.32;;
38435;SDS011;24220;48.168;14.024;2023-03-24T16:54:12;6.78;;;6.05;;
38435;SDS011;24220;48.168;14.024;2023-03-24T16:56:40;6.93;;;5.88;;
38435;SDS011;24220;48.168;14.024;2023-03-24T16:59:07;7.43;;;5.72;;
38435;SDS011;24220;48.168;14.024;2023-03-24T17:01:37;8.10;;;6.80;;
38435;SDS011;24220;48.168;14.024;2023-03-24T17:04:07;9.05;;;7.50;;
38435;SDS011;24220;48.168;14.024;2023-03-24T17:06:39;11.00;;;9.27;;
38435;SDS011;24220;48.168;14.024;2023-03-24T17:09:08;10.60;;;8.98;;
38435;SDS011;24220;48.168;14.024;2023-03-24T17:11:37;13.80;;;12.50;;
38435;SDS011;24220;48.168;14.024;2023-03-24T17:14:06;14.10;;;12.70;;
38435;SDS011;24220;48.168;14.024;2023-03-24T17:16:41;14.82;;;11.15;;
38435;SDS011;24220;48.168;14.024;2023-03-24T17:19:11;11.77;;;10.52;;
38435;SDS011;24220;48.168;14.024;2023-03-24T17:21:41;11.73;;;10.52;;
38435;SDS011;24220;48.168;14.024;2023-03-24T17:24:13;12.15;;;10.05;;
38435;SDS011;24220;48.168;14.024;2023-03-24T17:26:40;12.30;;;10.95;;
38435;SDS011;24220;48.168;14.024;2023-03-24T17:29:09;12.93;;;11.40;;
38435;SDS011;24220;48.168;14.024;2023-03-24T17:31:38;12.65;;;11.15;;
38435;SDS011;24220;48.168;14.024;2023-03-24T17:34:11;14.23;;;11.55;;
38435;SDS011;24220;48.168;14.024;2023-03-24T17:36:42;15.55;;;11.98;;
38435;SDS011;24220;48.168;14.024;2023-03-24T17:39:13;14.30;;;12.35;;
38435;SDS011;24220;48.168;14.024;2023-03-24T17:41:42;15.10;;;13.40;;
38435;SDS011;24220;48.168;14.024;2023-03-24T17:44:10;18.30;;;14.75;;
38435;SDS011;24220;48.168;14.024;2023-03-24T17:46:39;26.77;;;18.75;;
38435;SDS011;24220;48.168;14.024;2023-03-24T17:49:07;24.25;;;16.60;;
38435;SDS011;24220;48.168;14.024;2023-03-24T17:51:37;18.13;;;13.05;;
38435;SDS011;24220;48.168;14.024;2023-03-24T17:54:04;11.80;;;10.57;;
38435;SDS011;24220;48.168;14.024;2023-03-24T17:59:08;11.07;;;8.90;;
38435;SDS011;24220;48.168;14.024;2023-03-24T18:01:35;10.35;;;8.45;;
38435;SDS011;24220;48.168;14.024;2023-03-24T18:04:05;11.88;;;9.07;;
38435;SDS011;24220;48.168;14.024;2023-03-24T18:06:33;13.20;;;9.38;;
38435;SDS011;24220;48.168;14.024;2023-03-24T18:09:00;11.57;;;7.95;;
38435;SDS011;24220;48.168;14.024;2023-03-24T18:11:28;8.65;;;6.85;;
38435;SDS011;24220;48.168;14.024;2023-03-24T18:13:55;6.78;;;6.07;;
38435;SDS011;24220;48.168;14.024;2023-03-24T18:16:22;8.68;;;5.72;;
38435;SDS011;24220;48.168;14.024;2023-03-24T18:18:56;5.45;;;4.20;;
38435;SDS011;24220;48.168;14.024;2023-03-24T18:21:23;5.80;;;4.70;;
38435;SDS011;24220;48.168;14.024;2023-03-24T18:23:53;5.18;;;4.55;;
38435;SDS011;24220;48.168;14.024;2023-03-24T18:26:21;3.83;;;3.42;;
38435;SDS011;24220;48.168;14.024;2023-03-24T18:28:49;3.25;;;2.35;;
38435;SDS011;24220;48.168;14.024;2023-03-24T18:31:18;2.25;;;2.00;;
38435;SDS011;24220;48.168;14.024;2023-03-24T18:33:49;2.30;;;2.10;;
38435;SDS011;24220;48.168;14.024;2023-03-24T18:36:19;2.80;;;2.00;;
38435;SDS011;24220;48.168;14.024;2023-03-24T18:38:56;2.20;;;2.00;;
38435;SDS011;24220;48.168;14.024;2023-03-24T18:41:31;4.03;;;2.50;;
38435;SDS011;24220;48.168;14.024;2023-03-24T18:44:03;2.40;;;1.95;;
38435;SDS011;24220;48.168;14.024;2023-03-24T18:46:33;3.72;;;2.05;;
38435;SDS011;24220;48.168;14.024;2023-03-24T18:49:00;1.83;;;1.30;;
38435;SDS011;24220;48.168;14.024;2023-03-24T18:51:31;1.42;;;1.25;;
38435;SDS011;24220;48.168;14.024;2023-03-24T18:53:58;3.00;;;1.48;;
38435;SDS011;24220;48.168;14.024;2023-03-24T18:56:26;2.53;;;1.40;;
38435;SDS011;24220;48.168;14.024;2023-03-24T18:58:53;1.85;;;1.33;;